sensor_id;sensor_type;location;lat;lon;timestamp;pressure;altitude;pressure_sealevel;temperature;humidity
24230;BME280;12362;50.004;8.006;2023-11-19T00:00:25;100375.56;;;9.03;100.00
24230;BME280;12362;50.004;8.006;2023-11-19T00:02:51;100381.63;;;9.02;100.00
24230;BME280;12362;50.004;8.006;2023-11-19T00:05:16;100391.94;;;9.03;100.00
24230;BME280;12362;50.004;8.006;2023-11-19T00:07:42;100407.47;;;9.03;100.00
24230;BME280;12362;50.004;8.006;2023-11-19T00:10:12;100413.50;;;9.04;100.00
24230;BME280;12362;50.004;8.006;2023-11-19T00:12:42;100411.69;;;9.06;100.00
24230;BME280;12362;50.004;8.006;2023-11-19T00:15:08;100396.28;;;9.03;100.00
24230;BME280;12362;50.004;8.006;2023-11-19T00:17:41;100402.16;;;9.06;100.00
24230;BME280;12362;50.004;8.006;2023-11-19T00:20:19;100390.13;;;9.05;100.00
24230;BME280;12362;50.004;8.006;2023-11-19T00:22:47;100384.19;;;9.03;100.00
24230;BME280;12362;50.004;8.006;2023-11-19T00:25:20;100396.16;;;9.06;100.00
24230;BME280;12362;50.004;8.006;2023-11-19T00:27:48;100398.63;;;9.09;100.00
24230;BME280;12362;50.004;8.006;2023-11-19T00:30:14;100387.28;;;9.11;100.00
24230;BME280;12362;50.004;8.006;2023-11-19T00:32:40;100374.31;;;9.11;100.00
24230;BME280;12362;50.004;8.006;2023-11-19T00:35:06;100373.50;;;9.11;100.00
24230;BME280;12362;50.004;8.006;2023-11-19T00:37:41;100369.91;;;9.13;100.00
24230;BME280;12362;50.004;8.006;2023-11-19T00:40:08;100369.72;;;9.18;100.00
24230;BME280;12362;50.004;8.006;2023-11-19T00:42:35;100359.44;;;9.16;100.00
24230;BME280;12362;50.004;8.006;2023-11-19T00:45:01;100365.66;;;9.12;100.00
24230;BME280;12362;50.004;8.006;2023-11-19T00:47:26;100366.44;;;9.14;100.00
24230;BME280;12362;50.004;8.006;2023-11-19T00:49:52;100351.78;;;9.13;100.00
24230;BME280;12362;50.004;8.006;2023-11-19T00:52:18;100339.66;;;9.14;100.00
24230;BME280;12362;50.004;8.006;2023-11-19T00:54:44;100354.09;;;9.19;100.00
24230;BME280;12362;50.004;8.006;2023-11-19T00:57:09;100341.03;;;9.22;100.00
24230;BME280;12362;50.004;8.006;2023-11-19T00:59:35;100328.94;;;9.23;100.00
24230;BME280;12362;50.004;8.006;2023-11-19T01:02:00;100332.63;;;9.17;100.00
24230;BME280;12362;50.004;8.006;2023-11-19T01:04:35;100332.56;;;9.19;100.00
24230;BME280;12362;50.004;8.006;2023-11-19T01:07:02;100339.53;;;9.17;100.00
24230;BME280;12362;50.004;8.006;2023-11-19T01:09:29;100331.78;;;9.17;100.00
24230;BME280;12362;50.004;8.006;2023-11-19T01:11:57;100331.78;;;9.17;100.00
24230;BME280;12362;50.004;8.006;2023-11-19T01:14:23;100337.66;;;9.20;100.00
24230;BME280;12362;50.004;8.006;2023-11-19T01:16:48;100332.41;;;9.22;100.00
24230;BME280;12362;50.004;8.006;2023-11-19T01:19:14;100329.75;;;9.23;100.00
24230;BME280;12362;50.004;8.006;2023-11-19T01:21:40;100327.94;;;9.25;100.00
24230;BME280;12362;50.004;8.006;2023-11-19T01:24:06;100338.31;;;9.25;100.00
24230;BME280;12362;50.004;8.006;2023-11-19T01:26:34;100359.81;;;9.27;100.00
24230;BME280;12362;50.004;8.006;2023-11-19T01:29:00;100333.16;;;9.24;100.00
24230;BME280;12362;50.004;8.006;2023-11-19T01:31:26;100349.38;;;9.29;100.00
24230;BME280;12362;50.004;8.006;2023-11-19T01:33:52;100358.00;;;9.29;100.00
24230;BME280;12362;50.004;8.006;2023-11-19T01:36:17;100341.47;;;9.32;100.00
24230;BME280;12362;50.004;8.006;2023-11-19T01:38:43;100334.38;;;9.35;100.00
24230;BME280;12362;50.004;8.006;2023-11-19T01:41:08;100328.38;;;9.35;100.00
24230;BME280;12362;50.004;8.006;2023-11-19T01:43:38;100318.84;;;9.35;100.00
24230;BME280;12362;50.004;8.006;2023-11-19T01:46:07;100299.09;;;9.33;100.00
24230;BME280;12362;50.004;8.006;2023-11-19T01:48:36;100288.78;;;9.31;100.00
24230;BME280;12362;50.004;8.006;2023-11-19T01:51:03;100296.22;;;9.39;100.00
24230;BME280;12362;50.004;8.006;2023-11-19T01:53:30;100301.28;;;9.42;100.00
24230;BME280;12362;50.004;8.006;2023-11-19T01:55:56;100294.19;;;9.45;100.00
24230;BME280;12362;50.004;8.006;2023-11-19T01:58:23;100279.84;;;9.38;100.00
24230;BME280;12362;50.004;8.006;2023-11-19T02:00:48;100283.78;;;9.47;100.00
24230;BME280;12362;50.004;8.006;2023-11-19T02:03:14;100278.63;;;9.45;100.00
24230;BME280;12362;50.004;8.006;2023-11-19T02:05:40;100282.78;;;9.49;100.00
24230;BME280;12362;50.004;8.006;2023-11-19T02:08:07;100272.63;;;9.45;100.00
24230;BME280;12362;50.004;8.006;2023-11-19T02:10:33;100275.84;;;9.50;100.00
24230;BME280;12362;50.004;8.006;2023-11-19T02:13:00;100278.50;;;9.48;100.00
24230;BME280;12362;50.004;8.006;2023-11-19T02:15:32;100272.88;;;9.57;100.00
24230;BME280;12362;50.004;8.006;2023-11-19T02:17:57;100285.06;;;9.55;100.00
24230;BME280;12362;50.004;8.006;2023-11-19T02:20:42;100279.88;;;9.55;100.00
24230;BME280;12362;50.004;8.006;2023-11-19T02:23:07;100276.25;;;9.59;100.00
24230;BME280;12362;50.004;8.006;2023-11-19T02:25:33;100269.94;;;9.65;100.00
24230;BME280;12362;50.004;8.006;2023-11-19T02:28:00;100259.78;;;9.60;100.00
24230;BME280;12362;50.004;8.006;2023-11-19T02:30:26;100268.13;;;9.67;100.00
24230;BME280;12362;50.004;8.006;2023-11-19T02:32:56;100266.13;;;9.72;100.00
24230;BME280;12362;50.004;8.006;2023-11-19T02:35:24;100262.81;;;9.70;100.00
24230;BME280;12362;50.004;8.006;2023-11-19T02:37:49;100264.41;;;9.72;100.00
24230;BME280;12362;50.004;8.006;2023-11-19T02:40:15;100257.41;;;9.74;100.00
24230;BME280;12362;50.004;8.006;2023-11-19T02:42:40;100251.22;;;9.77;100.00
24230;BME280;12362;50.004;8.006;2023-11-19T02:45:07;100247.50;;;9.82;100.00
24230;BME280;12362;50.004;8.006;2023-11-19T02:47:33;100243.00;;;9.86;100.00
24230;BME280;12362;50.004;8.006;2023-11-19T02:50:00;100234.63;;;9.81;100.00
24230;BME280;12362;50.004;8.006;2023-11-19T02:52:26;100236.44;;;9.79;100.00
24230;BME280;12362;50.004;8.006;2023-11-19T02:54:51;100239.94;;;9.78;100.00
24230;BME280;12362;50.004;8.006;2023-11-19T02:57:18;100235.44;;;9.81;100.00
24230;BME280;12362;50.004;8.006;2023-11-19T02:59:46;100240.47;;;9.84;100.00
24230;BME280;12362;50.004;8.006;2023-11-19T03:02:11;100231.69;;;9.87;100.00
24230;BME280;12362;50.004;8.006;2023-11-19T03:04:38;100230.88;;;9.86;100.00
24230;BME280;12362;50.004;8.006;2023-11-19T03:07:08;100235.06;;;9.89;100.00
24230;BME280;12362;50.004;8.006;2023-11-19T03:09:34;100233.53;;;9.85;100.00
24230;BME280;12362;50.004;8.006;2023-11-19T03:12:06;100237.56;;;9.90;100.00
24230;BME280;12362;50.004;8.006;2023-11-19T03:14:33;100227.06;;;9.93;100.00
24230;BME280;12362;50.004;8.006;2023-11-19T03:16:59;100228.66;;;9.95;100.00
24230;BME280;12362;50.004;8.006;2023-11-19T03:19:25;100227.00;;;9.94;100.00
24230;BME280;12362;50.004;8.006;2023-11-19T03:21:52;100225.25;;;9.95;100.00
24230;BME280;12362;50.004;8.006;2023-11-19T03:24:17;100228.59;;;9.97;100.00
24230;BME280;12362;50.004;8.006;2023-11-19T03:26:48;100217.31;;;9.98;100.00
24230;BME280;12362;50.004;8.006;2023-11-19T03:29:15;100219.03;;;9.99;100.00
24230;BME280;12362;50.004;8.006;2023-11-19T03:31:44;100219.22;;;9.94;100.00
24230;BME280;12362;50.004;8.006;2023-11-19T03:34:12;100214.94;;;9.93;100.00
24230;BME280;12362;50.004;8.006;2023-11-19T03:36:38;100223.56;;;9.94;100.00
24230;BME280;12362;50.004;8.006;2023-11-19T03:39:03;100217.38;;;9.96;100.00
24230;BME280;12362;50.004;8.006;2023-11-19T03:41:29;100214.78;;;9.96;100.00
24230;BME280;12362;50.004;8.006;2023-11-19T03:43:54;100205.25;;;9.97;100.00
24230;BME280;12362;50.004;8.006;2023-11-19T03:46:21;100214.88;;;9.95;100.00
24230;BME280;12362;50.004;8.006;2023-11-19T03:48:48;100223.56;;;9.94;100.00
24230;BME280;12362;50.004;8.006;2023-11-19T03:51:14;100225.16;;;9.96;100.00
24230;BME280;12362;50.004;8.006;2023-11-19T03:53:42;100227.91;;;9.93;100.00
24230;BME280;12362;50.004;8.006;2023-11-19T03:56:09;100224.41;;;9.94;100.00
24230;BME280;12362;50.004;8.006;2023-11-19T03:58:35;100220.72;;;10.00;100.00
24230;BME280;12362;50.004;8.006;2023-11-19T04:01:01;100214.66;;;9.99;100.00
24230;BME280;12362;50.004;8.006;2023-11-19T04:03:28;100206.16;;;9.96;100.00
24230;BME280;12362;50.004;8.006;2023-11-19T04:05:53;100199.16;;;9.98;100.00
24230;BME280;12362;50.004;8.006;2023-11-19T04:08:19;100203.38;;;10.00;100.00
24230;BME280;12362;50.004;8.006;2023-11-19T04:10:44;100208.47;;;10.02;100.00
24230;BME280;12362;50.004;8.006;2023-11-19T04:13:10;100200.41;;;10.08;100.00
24230;BME280;12362;50.004;8.006;2023-11-19T04:15:36;100204.91;;;10.04;100.00
24230;BME280;12362;50.004;8.006;2023-11-19T04:18:01;100203.84;;;10.08;100.00
24230;BME280;12362;50.004;8.006;2023-11-19T04:20:27;100204.38;;;10.15;100.00
24230;BME280;12362;50.004;8.006;2023-11-19T04:22:55;100211.09;;;10.19;100.00
24230;BME280;12362;50.004;8.006;2023-11-19T04:25:21;100203.84;;;10.25;100.00
24230;BME280;12362;50.004;8.006;2023-11-19T04:27:49;100197.66;;;10.28;100.00
24230;BME280;12362;50.004;8.006;2023-11-19T04:30:15;100196.81;;;10.27;100.00
24230;BME280;12362;50.004;8.006;2023-11-19T04:32:40;100195.97;;;10.27;100.00
24230;BME280;12362;50.004;8.006;2023-11-19T04:35:06;100193.38;;;10.27;100.00
24230;BME280;12362;50.004;8.006;2023-11-19T04:37:32;100194.06;;;10.30;100.00
24230;BME280;12362;50.004;8.006;2023-11-19T04:39:57;100196.59;;;10.32;100.00
24230;BME280;12362;50.004;8.006;2023-11-19T04:42:23;100202.69;;;10.31;100.00
24230;BME280;12362;50.004;8.006;2023-11-19T04:44:49;100202.78;;;10.29;100.00
24230;BME280;12362;50.004;8.006;2023-11-19T04:47:15;100212.97;;;10.32;100.00
24230;BME280;12362;50.004;8.006;2023-11-19T04:49:41;100201.78;;;10.32;100.00
24230;BME280;12362;50.004;8.006;2023-11-19T04:52:09;100190.53;;;10.31;100.00
24230;BME280;12362;50.004;8.006;2023-11-19T04:54:35;100184.63;;;10.29;100.00
24230;BME280;12362;50.004;8.006;2023-11-19T04:57:00;100183.22;;;10.22;100.00
24230;BME280;12362;50.004;8.006;2023-11-19T04:59:25;100182.31;;;10.23;100.00
24230;BME280;12362;50.004;8.006;2023-11-19T05:01:52;100201.16;;;10.27;100.00
24230;BME280;12362;50.004;8.006;2023-11-19T05:04:18;100195.16;;;10.26;100.00
24230;BME280;12362;50.004;8.006;2023-11-19T05:06:44;100194.22;;;10.27;100.00
24230;BME280;12362;50.004;8.006;2023-11-19T05:09:09;100194.13;;;10.29;100.00
24230;BME280;12362;50.004;8.006;2023-11-19T05:11:37;100194.00;;;10.32;100.00
24230;BME280;12362;50.004;8.006;2023-11-19T05:14:04;100194.00;;;10.32;100.00
24230;BME280;12362;50.004;8.006;2023-11-19T05:16:30;100193.91;;;10.33;100.00
24230;BME280;12362;50.004;8.006;2023-11-19T05:18:56;100184.63;;;10.29;100.00
24230;BME280;12362;50.004;8.006;2023-11-19T05:21:21;100186.22;;;10.32;100.00
24230;BME280;12362;50.004;8.006;2023-11-19T05:23:47;100183.53;;;10.33;100.00
24230;BME280;12362;50.004;8.006;2023-11-19T05:26:20;100186.72;;;10.38;100.00
24230;BME280;12362;50.004;8.006;2023-11-19T05:28:47;100179.78;;;10.39;100.00
24230;BME280;12362;50.004;8.006;2023-11-19T05:31:17;100174.53;;;10.40;100.00
24230;BME280;12362;50.004;8.006;2023-11-19T05:33:43;100172.06;;;10.37;100.00
24230;BME280;12362;50.004;8.006;2023-11-19T05:36:11;100172.84;;;10.39;100.00
24230;BME280;12362;50.004;8.006;2023-11-19T05:38:36;100177.84;;;10.42;100.00
24230;BME280;12362;50.004;8.006;2023-11-19T05:41:02;100181.16;;;10.46;100.00
24230;BME280;12362;50.004;8.006;2023-11-19T05:43:28;100192.31;;;10.48;100.00
24230;BME280;12362;50.004;8.006;2023-11-19T05:45:54;100190.63;;;10.47;100.00
24230;BME280;12362;50.004;8.006;2023-11-19T05:48:19;100188.03;;;10.47;100.00
24230;BME280;12362;50.004;8.006;2023-11-19T05:50:45;100189.84;;;10.45;100.00
24230;BME280;12362;50.004;8.006;2023-11-19T05:53:11;100187.31;;;10.43;100.00
24230;BME280;12362;50.004;8.006;2023-11-19T05:55:39;100190.81;;;10.42;100.00
24230;BME280;12362;50.004;8.006;2023-11-19T05:58:24;100188.31;;;10.41;100.00
24230;BME280;12362;50.004;8.006;2023-11-19T06:00:51;100196.88;;;10.43;100.00
24230;BME280;12362;50.004;8.006;2023-11-19T06:03:16;100191.69;;;10.43;100.00
24230;BME280;12362;50.004;8.006;2023-11-19T06:05:44;100196.97;;;10.41;100.00
24230;BME280;12362;50.004;8.006;2023-11-19T06:08:11;100195.72;;;10.48;100.00
24230;BME280;12362;50.004;8.006;2023-11-19T06:10:41;100192.13;;;10.51;100.00
24230;BME280;12362;50.004;8.006;2023-11-19T06:13:07;100204.19;;;10.52;100.00
24230;BME280;12362;50.004;8.006;2023-11-19T06:15:35;100206.88;;;10.50;100.00
24230;BME280;12362;50.004;8.006;2023-11-19T06:18:02;100199.31;;;10.46;100.00
24230;BME280;12362;50.004;8.006;2023-11-19T06:20:33;100214.03;;;10.45;100.00
24230;BME280;12362;50.004;8.006;2023-11-19T06:22:59;100217.63;;;10.43;100.00
24230;BME280;12362;50.004;8.006;2023-11-19T06:25:25;100211.31;;;10.31;100.00
24230;BME280;12362;50.004;8.006;2023-11-19T06:27:51;100212.63;;;10.23;100.00
24230;BME280;12362;50.004;8.006;2023-11-19T06:30:17;100214.31;;;10.24;100.00
24230;BME280;12362;50.004;8.006;2023-11-19T06:32:43;100205.56;;;10.25;100.00
24230;BME280;12362;50.004;8.006;2023-11-19T06:35:09;100210.47;;;10.31;100.00
24230;BME280;12362;50.004;8.006;2023-11-19T06:37:37;100218.78;;;10.37;100.00
24230;BME280;12362;50.004;8.006;2023-11-19T06:40:04;100210.16;;;10.37;100.00
24230;BME280;12362;50.004;8.006;2023-11-19T06:42:36;100194.91;;;10.31;100.00
24230;BME280;12362;50.004;8.006;2023-11-19T06:45:02;100211.81;;;10.38;100.00
24230;BME280;12362;50.004;8.006;2023-11-19T06:47:29;100206.59;;;10.39;100.00
24230;BME280;12362;50.004;8.006;2023-11-19T06:49:54;100205.72;;;10.39;100.00
24230;BME280;12362;50.004;8.006;2023-11-19T06:52:20;100220.31;;;10.41;100.00
24230;BME280;12362;50.004;8.006;2023-11-19T06:54:45;100220.22;;;10.43;100.00
24230;BME280;12362;50.004;8.006;2023-11-19T06:57:11;100210.63;;;10.45;100.00
24230;BME280;12362;50.004;8.006;2023-11-19T06:59:37;100206.94;;;10.49;100.00
24230;BME280;12362;50.004;8.006;2023-11-19T07:02:03;100201.81;;;10.64;100.00
24230;BME280;12362;50.004;8.006;2023-11-19T07:04:30;100208.25;;;10.73;100.00
24230;BME280;12362;50.004;8.006;2023-11-19T07:06:56;100210.53;;;10.79;100.00
24230;BME280;12362;50.004;8.006;2023-11-19T07:09:21;100211.31;;;10.81;100.00
24230;BME280;12362;50.004;8.006;2023-11-19T07:11:48;100212.41;;;10.92;100.00
24230;BME280;12362;50.004;8.006;2023-11-19T07:14:15;100208.50;;;11.00;100.00
24230;BME280;12362;50.004;8.006;2023-11-19T07:16:41;100211.59;;;11.07;100.00
24230;BME280;12362;50.004;8.006;2023-11-19T07:19:08;100211.75;;;11.19;100.00
24230;BME280;12362;50.004;8.006;2023-11-19T07:21:34;100218.47;;;11.23;100.00
24230;BME280;12362;50.004;8.006;2023-11-19T07:23:59;100212.03;;;11.30;100.00
24230;BME280;12362;50.004;8.006;2023-11-19T07:26:25;100198.03;;;11.33;100.00
24230;BME280;12362;50.004;8.006;2023-11-19T07:28:50;100189.47;;;11.31;100.00
24230;BME280;12362;50.004;8.006;2023-11-19T07:31:16;100197.78;;;11.37;100.00
24230;BME280;12362;50.004;8.006;2023-11-19T07:33:45;100195.19;;;11.37;100.00
24230;BME280;12362;50.004;8.006;2023-11-19T07:36:12;100215.97;;;11.37;100.00
24230;BME280;12362;50.004;8.006;2023-11-19T07:38:37;100218.06;;;11.46;100.00
24230;BME280;12362;50.004;8.006;2023-11-19T07:41:05;100214.38;;;11.50;100.00
24230;BME280;12362;50.004;8.006;2023-11-19T07:43:35;100209.72;;;11.57;100.00
24230;BME280;12362;50.004;8.006;2023-11-19T07:46:01;100211.69;;;11.67;100.00
24230;BME280;12362;50.004;8.006;2023-11-19T07:48:27;100204.31;;;11.75;100.00
24230;BME280;12362;50.004;8.006;2023-11-19T07:50:53;100203.91;;;11.82;100.00
24230;BME280;12362;50.004;8.006;2023-11-19T07:53:19;100206.13;;;11.88;100.00
24230;BME280;12362;50.004;8.006;2023-11-19T07:55:45;100213.22;;;12.00;100.00
24230;BME280;12362;50.004;8.006;2023-11-19T07:58:11;100217.63;;;12.00;100.00
24230;BME280;12362;50.004;8.006;2023-11-19T08:00:37;100203.41;;;12.05;100.00
24230;BME280;12362;50.004;8.006;2023-11-19T08:03:05;100218.09;;;12.06;100.00
24230;BME280;12362;50.004;8.006;2023-11-19T08:05:31;100219.78;;;12.07;100.00
24230;BME280;12362;50.004;8.006;2023-11-19T08:07:57;100211.03;;;12.08;100.00
24230;BME280;12362;50.004;8.006;2023-11-19T08:10:23;100220.00;;;12.18;100.00
24230;BME280;12362;50.004;8.006;2023-11-19T08:12:52;100223.94;;;12.39;100.00
24230;BME280;12362;50.004;8.006;2023-11-19T08:15:17;100228.41;;;12.37;100.00
24230;BME280;12362;50.004;8.006;2023-11-19T08:17:43;100233.09;;;12.60;100.00
24230;BME280;12362;50.004;8.006;2023-11-19T08:20:09;100243.22;;;12.65;100.00
24230;BME280;12362;50.004;8.006;2023-11-19T08:22:38;100242.22;;;12.53;100.00
24230;BME280;12362;50.004;8.006;2023-11-19T08:25:05;100234.47;;;12.52;100.00
24230;BME280;12362;50.004;8.006;2023-11-19T08:27:37;100233.53;;;12.53;100.00
24230;BME280;12362;50.004;8.006;2023-11-19T08:32:42;100244.97;;;12.50;100.00
24230;BME280;12362;50.004;8.006;2023-11-19T08:35:09;100245.91;;;12.49;100.00
24230;BME280;12362;50.004;8.006;2023-11-19T08:37:35;100241.53;;;12.50;100.00
24230;BME280;12362;50.004;8.006;2023-11-19T08:40:05;100257.91;;;12.52;100.00
24230;BME280;12362;50.004;8.006;2023-11-19T08:42:45;100262.34;;;12.50;100.00
24230;BME280;12362;50.004;8.006;2023-11-19T08:45:13;100252.78;;;12.50;100.00
24230;BME280;12362;50.004;8.006;2023-11-19T08:47:39;100265.53;;;12.55;100.00
24230;BME280;12362;50.004;8.006;2023-11-19T08:50:06;100264.63;;;12.56;100.00
24230;BME280;12362;50.004;8.006;2023-11-19T08:52:31;100251.44;;;12.59;100.00
24230;BME280;12362;50.004;8.006;2023-11-19T08:54:57;100244.53;;;12.58;100.00
24230;BME280;12362;50.004;8.006;2023-11-19T08:57:24;100244.53;;;12.58;100.00
24230;BME280;12362;50.004;8.006;2023-11-19T08:59:50;100226.13;;;12.61;100.00
24230;BME280;12362;50.004;8.006;2023-11-19T09:02:15;100242.94;;;12.69;100.00
24230;BME280;12362;50.004;8.006;2023-11-19T09:04:41;100250.97;;;12.80;100.00
24230;BME280;12362;50.004;8.006;2023-11-19T09:07:07;100236.56;;;12.88;100.00
24230;BME280;12362;50.004;8.006;2023-11-19T09:09:38;100235.09;;;12.98;100.00
24230;BME280;12362;50.004;8.006;2023-11-19T09:12:03;100227.44;;;13.09;100.00
24230;BME280;12362;50.004;8.006;2023-11-19T09:14:30;100233.88;;;13.18;100.00
24230;BME280;12362;50.004;8.006;2023-11-19T09:16:56;100229.56;;;13.31;100.00
24230;BME280;12362;50.004;8.006;2023-11-19T09:19:22;100236.47;;;13.32;100.00
24230;BME280;12362;50.004;8.006;2023-11-19T09:21:47;100235.53;;;13.33;100.00
24230;BME280;12362;50.004;8.006;2023-11-19T09:24:15;100228.06;;;13.41;100.00
24230;BME280;12362;50.004;8.006;2023-11-19T09:26:41;100224.38;;;13.57;100.00
24230;BME280;12362;50.004;8.006;2023-11-19T09:29:10;100249.91;;;13.66;100.00
24230;BME280;12362;50.004;8.006;2023-11-19T09:31:42;100240.38;;;13.79;100.00
24230;BME280;12362;50.004;8.006;2023-11-19T09:34:08;100231.88;;;14.02;100.00
24230;BME280;12362;50.004;8.006;2023-11-19T09:36:34;100227.25;;;14.19;100.00
24230;BME280;12362;50.004;8.006;2023-11-19T09:39:02;100230.44;;;14.37;100.00
24230;BME280;12362;50.004;8.006;2023-11-19T09:41:30;100228.63;;;14.37;100.00
24230;BME280;12362;50.004;8.006;2023-11-19T09:43:56;100239.09;;;14.37;100.00
24230;BME280;12362;50.004;8.006;2023-11-19T09:46:22;100225.50;;;14.32;100.00
24230;BME280;12362;50.004;8.006;2023-11-19T09:48:52;100224.97;;;14.27;100.00
24230;BME280;12362;50.004;8.006;2023-11-19T09:51:20;100236.66;;;14.34;100.00
24230;BME280;12362;50.004;8.006;2023-11-19T09:53:45;100235.22;;;14.43;100.00
24230;BME280;12362;50.004;8.006;2023-11-19T09:56:12;100234.09;;;14.47;100.00
24230;BME280;12362;50.004;8.006;2023-11-19T09:58:38;100232.84;;;14.52;100.00
24230;BME280;12362;50.004;8.006;2023-11-19T10:01:03;100227.00;;;14.61;100.00
24230;BME280;12362;50.004;8.006;2023-11-19T10:03:33;100232.09;;;14.50;100.00
24230;BME280;12362;50.004;8.006;2023-11-19T10:06:06;100216.09;;;14.30;100.00
24230;BME280;12362;50.004;8.006;2023-11-19T10:08:32;100223.28;;;14.26;100.00
24230;BME280;12362;50.004;8.006;2023-11-19T10:10:58;100221.22;;;14.31;100.00
24230;BME280;12362;50.004;8.006;2023-11-19T10:13:37;100212.34;;;14.34;100.00
24230;BME280;12362;50.004;8.006;2023-11-19T10:16:07;100217.69;;;14.69;100.00
24230;BME280;12362;50.004;8.006;2023-11-19T10:18:34;100199.88;;;14.99;100.00
24230;BME280;12362;50.004;8.006;2023-11-19T10:21:04;100197.50;;;14.96;100.00
24230;BME280;12362;50.004;8.006;2023-11-19T10:23:50;100199.63;;;14.79;100.00
24230;BME280;12362;50.004;8.006;2023-11-19T10:26:16;100196.25;;;14.77;100.00
24230;BME280;12362;50.004;8.006;2023-11-19T10:28:42;100202.75;;;14.71;100.00
24230;BME280;12362;50.004;8.006;2023-11-19T10:31:11;100203.59;;;14.59;100.00
24230;BME280;12362;50.004;8.006;2023-11-19T10:33:37;100201.19;;;14.56;100.00
24230;BME280;12362;50.004;8.006;2023-11-19T10:36:03;100201.19;;;14.56;100.00
24230;BME280;12362;50.004;8.006;2023-11-19T10:38:33;100205.03;;;14.63;100.00
24230;BME280;12362;50.004;8.006;2023-11-19T10:40:59;100198.88;;;14.64;100.00
24230;BME280;12362;50.004;8.006;2023-11-19T10:43:24;100195.00;;;14.70;100.00
24230;BME280;12362;50.004;8.006;2023-11-19T10:45:51;100198.44;;;14.58;100.00
24230;BME280;12362;50.004;8.006;2023-11-19T10:48:18;100192.09;;;14.62;100.00
24230;BME280;12362;50.004;8.006;2023-11-19T10:50:53;100197.50;;;14.59;100.00
24230;BME280;12362;50.004;8.006;2023-11-19T10:53:28;100204.94;;;14.65;100.00
24230;BME280;12362;50.004;8.006;2023-11-19T10:55:57;100188.81;;;14.71;100.00
24230;BME280;12362;50.004;8.006;2023-11-19T10:58:28;100192.78;;;14.76;100.00
24230;BME280;12362;50.004;8.006;2023-11-19T11:01:02;100183.00;;;14.80;100.00
24230;BME280;12362;50.004;8.006;2023-11-19T11:03:36;100169.91;;;14.67;100.00
24230;BME280;12362;50.004;8.006;2023-11-19T11:06:05;100179.44;;;14.68;100.00
24230;BME280;12362;50.004;8.006;2023-11-19T11:08:31;100184.97;;;14.64;100.00
24230;BME280;12362;50.004;8.006;2023-11-19T11:10:57;100179.63;;;14.65;100.00
24230;BME280;12362;50.004;8.006;2023-11-19T11:13:28;100179.44;;;14.68;100.00
24230;BME280;12362;50.004;8.006;2023-11-19T11:15:55;100173.59;;;14.65;100.00
24230;BME280;12362;50.004;8.006;2023-11-19T11:18:23;100179.91;;;15.11;100.00
24230;BME280;12362;50.004;8.006;2023-11-19T11:20:52;100167.97;;;15.89;100.00
24230;BME280;12362;50.004;8.006;2023-11-19T11:32:06;100171.25;;;14.98;100.00
24230;BME280;12362;50.004;8.006;2023-11-19T11:37:34;100175.03;;;14.81;100.00
24230;BME280;12362;50.004;8.006;2023-11-19T11:40:03;100178.25;;;14.85;100.00
24230;BME280;12362;50.004;8.006;2023-11-19T11:42:38;100168.34;;;14.77;100.00
24230;BME280;12362;50.004;8.006;2023-11-19T11:45:11;100165.09;;;14.74;100.00
24230;BME280;12362;50.004;8.006;2023-11-19T11:50:19;100159.38;;;14.56;100.00
24230;BME280;12362;50.004;8.006;2023-11-19T11:55:27;100162.00;;;15.05;100.00
24230;BME280;12362;50.004;8.006;2023-11-19T11:57:54;100159.47;;;14.80;100.00
24230;BME280;12362;50.004;8.006;2023-11-19T12:02:55;100152.66;;;14.90;100.00
24230;BME280;12362;50.004;8.006;2023-11-19T12:05:21;100160.03;;;14.96;100.00
24230;BME280;12362;50.004;8.006;2023-11-19T12:08:00;100130.84;;;15.61;100.00
24230;BME280;12362;50.004;8.006;2023-11-19T12:10:31;100128.53;;;16.14;100.00
24230;BME280;12362;50.004;8.006;2023-11-19T12:13:09;100126.84;;;16.47;100.00
24230;BME280;12362;50.004;8.006;2023-11-19T12:18:27;100105.84;;;16.80;100.00
24230;BME280;12362;50.004;8.006;2023-11-19T12:20:56;100098.59;;;16.40;100.00
24230;BME280;12362;50.004;8.006;2023-11-19T12:23:22;100106.97;;;16.11;100.00
24230;BME280;12362;50.004;8.006;2023-11-19T12:25:49;100100.97;;;15.87;100.00
24230;BME280;12362;50.004;8.006;2023-11-19T12:28:15;100094.09;;;16.08;100.00
24230;BME280;12362;50.004;8.006;2023-11-19T12:30:45;100102.41;;;15.80;100.00
24230;BME280;12362;50.004;8.006;2023-11-19T12:33:12;100099.06;;;15.89;100.00
24230;BME280;12362;50.004;8.006;2023-11-19T12:35:48;100090.25;;;15.79;100.00
24230;BME280;12362;50.004;8.006;2023-11-19T12:38:23;100089.13;;;15.70;100.00
24230;BME280;12362;50.004;8.006;2023-11-19T12:41:09;100079.81;;;16.01;100.00
24230;BME280;12362;50.004;8.006;2023-11-19T12:43:39;100075.13;;;16.60;100.00
24230;BME280;12362;50.004;8.006;2023-11-19T12:46:23;100075.47;;;16.67;100.00
24230;BME280;12362;50.004;8.006;2023-11-19T12:48:49;100076.41;;;16.88;100.00
24230;BME280;12362;50.004;8.006;2023-11-19T12:51:15;100073.69;;;16.56;100.00
24230;BME280;12362;50.004;8.006;2023-11-19T12:53:52;100071.66;;;16.60;100.00
24230;BME280;12362;50.004;8.006;2023-11-19T12:56:21;100074.66;;;16.44;100.00
24230;BME280;12362;50.004;8.006;2023-11-19T12:58:47;100071.66;;;16.71;100.00
24230;BME280;12362;50.004;8.006;2023-11-19T13:01:18;100076.91;;;16.38;100.00
24230;BME280;12362;50.004;8.006;2023-11-19T13:03:47;100073.81;;;16.44;100.00
24230;BME280;12362;50.004;8.006;2023-11-19T13:06:14;100072.16;;;16.43;100.00
24230;BME280;12362;50.004;8.006;2023-11-19T13:08:42;100081.88;;;16.19;100.00